Time;durP1;ratioP1;P1;durP2;ratioP2;P2;SDS_P1;SDS_P2;PMS_P1;PMS_P2;Temp;Humidity;BMP_temperature;BMP_pressure;BME280_temperature;BME280_humidity;BME280_pressure;Samples;Min_cycle;Max_cycle;Signal;HPM_P1;HPM_P2
2022/08/20 00:01:12;;;;;;;3.13;1.93;;;26.40;99.90;;;;;;6222631;23;20176;-94
2022/08/20 00:03:44;;;;;;;4.00;1.90;;;26.50;99.90;;;;;;6225169;23;20184;-94
2022/08/20 00:06:24;;;;;;;2.57;1.90;;;26.50;99.90;;;;;;6223906;23;20172;-94
2022/08/20 00:08:55;;;;;;;3.03;1.70;;;26.30;99.90;;;;;;6222869;23;20653;-94
2022/08/20 00:11:28;;;;;;;3.17;2.00;;;26.10;99.90;;;;;;6225600;22;20200;-94
2022/08/20 00:14:05;;;;;;;3.73;2.23;;;26.20;99.90;;;;;;6222180;23;20184;-94
2022/08/20 00:16:39;;;;;;;1.90;1.73;;;26.00;99.90;;;;;;6224791;23;20176;-94
2022/08/20 00:19:11;;;;;;;3.03;1.73;;;26.00;99.90;;;;;;6225189;23;20177;-95
2022/08/20 00:21:42;;;;;;;2.90;2.00;;;26.00;99.90;;;;;;6221112;23;20165;-95
2022/08/20 00:24:16;;;;;;;4.27;2.00;;;25.90;99.90;;;;;;6227528;23;20187;-96
2022/08/20 00:26:47;;;;;;;1.63;1.53;;;26.00;99.90;;;;;;6228012;22;20187;-96
2022/08/20 00:29:34;;;;;;;4.40;1.83;;;26.00;99.90;;;;;;6203336;23;20223;-96
2022/08/20 00:32:21;;;;;;;2.33;1.73;;;26.00;99.90;;;;;;6237955;23;20183;-96
2022/08/20 00:34:57;;;;;;;2.43;1.83;;;26.00;99.90;;;;;;6209403;23;20182;-95
2022/08/20 00:37:42;;;;;;;2.87;2.00;;;26.10;99.90;;;;;;6214670;23;20185;-95
2022/08/20 00:45:45;;;;;;;3.10;2.43;;;26.20;99.90;;;;;;6233224;23;20219;-95
2022/08/20 00:48:17;;;;;;;3.50;1.90;;;26.30;99.90;;;;;;6235804;23;20176;-94
2022/08/20 00:51:10;;;;;;;3.80;1.97;;;26.20;99.90;;;;;;6238829;23;20642;-96
2022/08/20 00:57:28;;;;;;;2.63;2.00;;;26.20;99.90;;;;;;6237392;23;20177;-95
2022/08/20 01:00:15;;;;;;;2.73;1.80;;;26.00;99.90;;;;;;6235378;23;20176;-96
2022/08/20 01:02:52;;;;;;;1.87;1.67;;;26.10;99.90;;;;;;6229615;23;20175;-96
2022/08/20 01:08:25;;;;;;;3.67;2.23;;;26.30;99.90;;;;;;6232688;23;20214;-96
2022/08/20 01:11:15;;;;;;;2.53;2.00;;;26.70;99.90;;;;;;6232648;23;20516;-94
2022/08/20 01:13:56;;;;;;;2.00;1.70;;;27.30;99.90;;;;;;6233586;23;20176;-94
2022/08/20 01:20:04;;;;;;;2.50;1.30;;;27.30;99.90;;;;;;6231574;23;20180;-94
2022/08/20 01:25:49;;;;;;;3.40;1.60;;;27.10;99.90;;;;;;6233717;23;20176;-94
2022/08/20 01:28:30;;;;;;;2.60;1.77;;;27.30;99.90;;;;;;6227562;23;20183;-94
2022/08/20 01:31:10;;;;;;;1.70;1.50;;;27.60;99.90;;;;;;6232623;23;20247;-94
2022/08/20 01:33:42;;;;;;;2.47;1.43;;;27.80;99.90;;;;;;6232795;23;20176;-94
2022/08/20 01:36:22;;;;;;;3.60;1.67;;;27.90;99.90;;;;;;6208622;23;20199;-93
2022/08/20 01:41:58;;;;;;;1.40;1.30;;;27.20;99.90;;;;;;6225045;23;20199;-95
2022/08/20 01:44:38;;;;;;;2.10;1.60;;;26.70;99.90;;;;;;6228314;23;20176;-95
2022/08/20 01:47:15;;;;;;;1.97;1.70;;;26.40;99.90;;;;;;6230539;23;20203;-95
2022/08/20 01:53:06;;;;;;;3.03;1.40;;;26.00;99.90;;;;;;6235278;23;20642;-96
2022/08/20 01:59:05;;;;;;;2.53;1.60;;;25.70;99.90;;;;;;6233021;23;20176;-96
2022/08/20 02:01:44;;;;;;;5.23;1.90;;;25.40;99.90;;;;;;6236160;23;20658;-95
2022/08/20 02:18:57;;;;;;;2.33;1.93;;;25.10;99.90;;;;;;6198312;23;20177;-95
2022/08/20 02:21:32;;;;;;;2.70;2.00;;;25.00;99.90;;;;;;6196229;23;20176;-94
2022/08/20 02:24:07;;;;;;;2.70;1.67;;;25.10;99.90;;;;;;6201079;23;20169;-93
2022/08/20 02:26:40;;;;;;;2.77;2.00;;;25.00;99.90;;;;;;6202669;23;20165;-93
2022/08/20 02:29:16;;;;;;;4.20;2.33;;;25.00;99.90;;;;;;6203674;23;20238;-94
2022/08/20 02:34:52;;;;;;;2.43;2.23;;;24.70;99.90;;;;;;6206701;23;20173;-94
2022/08/20 02:37:40;;;;;;;2.70;2.40;;;24.60;99.90;;;;;;6184060;23;20177;-94
2022/08/20 02:48:19;;;;;;;3.20;2.33;;;24.30;99.90;;;;;;6237245;23;20222;-96
2022/08/20 03:01:39;;;;;;;5.00;2.87;;;24.00;99.90;;;;;;6188655;23;20215;-93
2022/08/20 03:04:23;;;;;;;4.10;2.47;;;24.00;99.90;;;;;;6205600;23;20189;-93
2022/08/20 03:06:55;;;;;;;2.80;2.60;;;23.90;99.90;;;;;;6198003;23;20177;-92
2022/08/20 03:09:26;;;;;;;2.90;2.27;;;23.90;99.90;;;;;;6193621;23;20200;-92
2022/08/20 03:12:06;;;;;;;5.67;3.00;;;23.80;99.90;;;;;;6203629;23;20211;-92
2022/08/20 03:14:39;;;;;;;3.87;3.00;;;23.70;99.90;;;;;;6179741;23;20173;-93
2022/08/20 03:17:13;;;;;;;6.63;3.80;;;23.60;99.90;;;;;;6202318;23;20181;-92
2022/08/20 03:22:47;;;;;;;7.97;3.30;;;23.50;99.90;;;;;;6208761;23;20627;-95
2022/08/20 03:25:34;;;;;;;3.03;2.63;;;23.40;99.90;;;;;;6185919;23;20211;-94
2022/08/20 03:36:50;;;;;;;2.97;2.63;;;23.10;99.90;;;;;;6201990;23;20211;-94
2022/08/20 03:39:22;;;;;;;2.97;2.70;;;23.00;99.90;;;;;;6212466;23;20193;-94
2022/08/20 03:47:37;;;;;;;4.73;2.50;;;22.90;99.90;;;;;;6208142;23;20173;-95
2022/08/20 03:50:14;;;;;;;4.53;2.30;;;22.90;99.90;;;;;;6197562;23;20173;-94
2022/08/20 03:52:52;;;;;;;3.07;2.43;;;22.90;99.90;;;;;;6192630;23;20224;-94
2022/08/20 03:55:26;;;;;;;3.57;2.77;;;22.80;99.90;;;;;;6205112;23;20173;-95
2022/08/20 04:03:28;;;;;;;2.90;2.23;;;22.70;99.90;;;;;;6234049;23;20208;-93
2022/08/20 04:06:07;;;;;;;4.80;2.57;;;22.70;99.90;;;;;;6236832;23;20176;-93
2022/08/20 04:08:40;;;;;;;3.70;2.13;;;22.70;99.90;;;;;;6236917;23;20245;-94
2022/08/20 04:11:16;;;;;;;3.37;2.00;;;22.60;99.90;;;;;;6234287;23;20215;-94
2022/08/20 04:13:58;;;;;;;4.07;1.83;;;22.60;99.90;;;;;;6218662;22;20164;-93
2022/08/20 04:16:31;;;;;;;2.97;1.77;;;22.60;99.90;;;;;;6244337;22;20175;-94
2022/08/20 04:19:06;;;;;;;1.90;1.47;;;22.60;99.90;;;;;;6244049;22;20195;-95
2022/08/20 04:21:42;;;;;;;2.77;1.50;;;22.60;99.90;;;;;;6244111;22;20162;-95
2022/08/20 04:24:20;;;;;;;2.90;1.80;;;22.50;99.90;;;;;;6244009;22;20202;-95
2022/08/20 04:27:04;;;;;;;2.07;1.60;;;22.50;99.90;;;;;;6243546;22;20210;-94
2022/08/20 04:29:41;;;;;;;1.53;1.43;;;22.50;99.90;;;;;;6219467;22;20195;-94
2022/08/20 04:32:15;;;;;;;1.97;1.70;;;22.40;99.90;;;;;;6243912;22;20191;-95
2022/08/20 04:34:50;;;;;;;2.10;1.23;;;22.40;99.90;;;;;;6244094;22;20177;-94
2022/08/20 04:37:33;;;;;;;1.60;1.40;;;22.40;99.90;;;;;;6216172;23;20172;-94
2022/08/20 04:42:57;;;;;;;1.83;1.43;;;22.30;99.90;;;;;;6236722;22;20169;-94
2022/08/20 04:45:34;;;;;;;1.40;1.30;;;22.30;99.90;;;;;;6236714;23;20181;-94
2022/08/20 04:48:06;;;;;;;1.57;1.40;;;22.20;99.90;;;;;;6231905;23;20168;-94
2022/08/20 04:50:46;;;;;;;1.60;1.33;;;22.20;99.90;;;;;;6222484;23;20183;-94
2022/08/20 04:53:22;;;;;;;2.17;1.47;;;22.10;99.90;;;;;;6222020;23;20223;-94
2022/08/20 04:55:56;;;;;;;4.17;1.40;;;22.10;99.90;;;;;;6222386;23;20168;-94
2022/08/20 04:58:30;;;;;;;2.03;1.70;;;22.00;99.90;;;;;;6228049;23;20165;-94
2022/08/20 05:01:07;;;;;;;1.87;1.30;;;22.00;99.90;;;;;;6223424;23;20657;-94
2022/08/20 05:03:40;;;;;;;3.40;1.30;;;22.00;99.90;;;;;;6223167;23;20190;-95
2022/08/20 05:06:12;;;;;;;2.80;1.30;;;21.90;99.90;;;;;;6232116;22;20177;-95
2022/08/20 05:08:45;;;;;;;1.90;1.13;;;21.80;99.90;;;;;;6243140;22;20172;-96
2022/08/20 05:11:17;;;;;;;1.87;1.30;;;21.80;99.90;;;;;;6242899;22;20215;-95
2022/08/20 05:14:07;;;;;;;3.43;1.00;;;21.70;99.90;;;;;;6212005;22;20504;-95
2022/08/20 05:16:44;;;;;;;2.57;1.20;;;21.70;99.90;;;;;;6183524;23;20177;-94
2022/08/20 05:19:16;;;;;;;2.30;1.40;;;21.60;99.90;;;;;;6182498;23;20232;-93
2022/08/20 05:21:48;;;;;;;3.37;1.00;;;21.60;99.90;;;;;;6181757;23;20197;-93
2022/08/20 05:24:22;;;;;;;2.50;1.07;;;21.50;99.90;;;;;;6182468;23;20233;-94
2022/08/20 05:26:54;;;;;;;2.10;1.20;;;21.40;99.90;;;;;;6182256;23;20177;-94
2022/08/20 05:29:26;;;;;;;2.30;1.20;;;21.40;99.90;;;;;;6179457;23;20198;-94
2022/08/20 05:32:02;;;;;;;2.13;1.13;;;21.40;99.90;;;;;;6176790;23;20224;-94
2022/08/20 05:34:33;;;;;;;1.87;1.13;;;21.30;99.90;;;;;;6171704;23;20180;-93
2022/08/20 05:37:06;;;;;;;4.50;1.40;;;21.30;99.90;;;;;;6169846;23;20208;-92
2022/08/20 05:39:39;;;;;;;1.57;1.10;;;21.20;99.90;;;;;;6168783;23;20232;-93
2022/08/20 05:42:10;;;;;;;3.93;1.13;;;21.20;99.90;;;;;;6168479;23;20288;-94
2022/08/20 05:44:41;;;;;;;3.27;1.40;;;21.10;99.90;;;;;;6168937;23;20181;-94
2022/08/20 05:47:13;;;;;;;2.80;1.30;;;21.10;99.90;;;;;;6170065;23;20600;-93
2022/08/20 05:49:45;;;;;;;2.67;1.17;;;21.10;99.90;;;;;;6169281;23;20217;-94
2022/08/20 05:52:17;;;;;;;1.77;1.30;;;21.10;99.90;;;;;;6169570;23;20277;-94
2022/08/20 05:54:54;;;;;;;1.27;1.10;;;21.00;99.90;;;;;;6167121;23;20174;-93
2022/08/20 05:57:25;;;;;;;1.63;1.00;;;21.00;99.90;;;;;;6168167;23;20177;-93
2022/08/20 05:59:57;;;;;;;2.50;1.17;;;20.90;99.90;;;;;;6167715;23;20609;-93
2022/08/20 06:05:16;;;;;;;1.20;0.83;;;20.80;99.90;;;;;;6199447;23;20214;-95
2022/08/20 06:07:49;;;;;;;2.30;1.20;;;20.70;99.90;;;;;;6194151;23;20180;-95
2022/08/20 06:10:26;;;;;;;1.73;1.00;;;20.70;99.90;;;;;;6193210;23;20232;-93
2022/08/20 06:12:57;;;;;;;1.77;0.97;;;20.60;99.90;;;;;;6193619;23;20231;-95
2022/08/20 06:15:29;;;;;;;2.57;1.10;;;20.50;99.90;;;;;;6194727;23;20257;-95
2022/08/20 06:18:00;;;;;;;2.87;1.20;;;20.50;99.90;;;;;;6192052;23;20183;-95
2022/08/20 06:20:42;;;;;;;4.40;1.40;;;20.40;99.90;;;;;;6191975;23;20203;-95
2022/08/20 06:23:13;;;;;;;1.77;1.07;;;20.40;99.90;;;;;;6194967;23;20182;-96
2022/08/20 06:25:49;;;;;;;4.87;1.40;;;20.30;99.90;;;;;;6192256;23;20200;-96
2022/08/20 06:28:21;;;;;;;3.40;0.97;;;20.30;99.90;;;;;;6194553;23;20177;-93
2022/08/20 06:30:53;;;;;;;1.50;1.17;;;20.20;99.90;;;;;;6192808;23;20235;-94
2022/08/20 06:33:24;;;;;;;1.10;1.00;;;20.20;99.90;;;;;;6193757;23;20240;-92
2022/08/20 06:35:56;;;;;;;2.00;1.00;;;20.10;99.90;;;;;;6194286;23;20174;-93
2022/08/20 06:41:17;;;;;;;2.50;0.97;;;20.10;99.90;;;;;;6224774;23;20246;-96
2022/08/20 06:43:50;;;;;;;2.90;1.13;;;20.00;99.90;;;;;;6224087;23;20175;-92
2022/08/20 06:46:25;;;;;;;2.40;1.00;;;20.00;99.90;;;;;;6225051;23;20177;-93
2022/08/20 06:48:57;;;;;;;1.93;0.77;;;19.90;99.90;;;;;;6224580;23;20169;-93
2022/08/20 06:51:28;;;;;;;1.03;0.90;;;19.80;99.90;;;;;;6221373;23;20200;-93
2022/08/20 06:54:03;;;;;;;1.23;0.97;;;19.80;99.90;;;;;;6223878;23;20184;-93
2022/08/20 06:56:40;;;;;;;0.70;0.70;;;19.60;99.90;;;;;;6223899;23;20176;-93
2022/08/20 06:59:15;;;;;;;3.13;0.97;;;19.60;99.90;;;;;;6197106;23;20180;-93
2022/08/20 07:01:55;;;;;;;1.10;1.00;;;19.50;99.90;;;;;;6222665;23;20557;-93
2022/08/20 07:04:27;;;;;;;1.67;1.00;;;19.50;99.90;;;;;;6222018;23;20249;-93
2022/08/20 07:06:58;;;;;;;2.23;1.20;;;19.40;99.90;;;;;;6222016;23;20176;-92
2022/08/20 07:09:30;;;;;;;1.40;1.27;;;19.40;99.90;;;;;;6221555;23;20183;-93
2022/08/20 07:12:03;;;;;;;1.23;1.10;;;19.30;99.90;;;;;;6219966;23;20172;-93
2022/08/20 07:14:36;;;;;;;3.20;1.30;;;19.40;99.90;;;;;;6221056;23;20222;-93
2022/08/20 07:17:14;;;;;;;1.43;1.30;;;19.30;99.90;;;;;;6221152;23;20183;-92
2022/08/20 07:19:47;;;;;;;1.47;1.37;;;19.30;99.90;;;;;;6220867;23;20179;-92
2022/08/20 07:22:18;;;;;;;2.53;1.60;;;19.30;99.90;;;;;;6220488;23;20211;-93
2022/08/20 07:24:51;;;;;;;1.67;1.57;;;19.20;99.90;;;;;;6222114;23;20230;-93
2022/08/20 07:27:25;;;;;;;3.13;1.37;;;19.20;99.90;;;;;;6220941;23;20507;-93
2022/08/20 07:32:44;;;;;;;4.23;1.53;;;19.10;99.90;;;;;;6219344;23;20283;-92
2022/08/20 07:35:18;;;;;;;2.57;1.40;;;19.10;99.90;;;;;;6221356;23;20636;-93
2022/08/20 07:37:53;;;;;;;1.70;1.10;;;19.10;99.90;;;;;;6221157;23;20169;-93
2022/08/20 07:40:27;;;;;;;1.67;1.33;;;19.10;99.90;;;;;;6221274;23;20229;-94
2022/08/20 07:43:01;;;;;;;2.73;1.43;;;19.00;99.90;;;;;;6221973;23;20247;-93
2022/08/20 07:45:37;;;;;;;1.37;1.20;;;19.00;99.90;;;;;;6223049;23;20179;-93
2022/08/20 07:48:17;;;;;;;1.53;1.20;;;19.00;99.90;;;;;;6198706;23;20176;-93
2022/08/20 07:51:02;;;;;;;2.47;1.30;;;19.00;99.90;;;;;;6222168;23;20196;-93
2022/08/20 07:53:38;;;;;;;1.33;1.17;;;18.90;99.90;;;;;;6221418;23;20674;-94
2022/08/20 07:56:10;;;;;;;1.80;1.37;;;18.80;99.90;;;;;;6221046;23;20649;-94
2022/08/20 07:58:48;;;;;;;2.37;1.43;;;18.80;99.90;;;;;;6221996;23;20173;-93
2022/08/20 08:01:21;;;;;;;3.90;1.60;;;18.80;99.90;;;;;;6224810;23;20183;-93
2022/08/20 08:03:54;;;;;;;1.50;1.40;;;18.90;99.90;;;;;;6221542;23;20161;-93
2022/08/20 08:06:27;;;;;;;2.50;1.57;;;18.90;99.90;;;;;;6222520;23;20231;-93
2022/08/20 08:09:05;;;;;;;1.73;1.33;;;18.80;99.90;;;;;;6223591;23;20172;-93
2022/08/20 08:11:40;;;;;;;1.70;1.30;;;18.80;99.90;;;;;;6219986;23;20701;-94
2022/08/20 08:14:22;;;;;;;1.50;1.40;;;18.80;99.90;;;;;;6222843;23;20231;-93
2022/08/20 08:16:56;;;;;;;2.03;1.30;;;18.80;99.90;;;;;;6225740;23;20187;-93
2022/08/20 08:19:33;;;;;;;1.27;1.17;;;18.70;99.90;;;;;;6225797;23;20172;-93
2022/08/20 08:22:05;;;;;;;2.03;1.33;;;18.80;99.90;;;;;;6224535;23;20180;-93
2022/08/20 08:24:36;;;;;;;1.93;1.40;;;18.80;99.90;;;;;;6205379;23;20180;-95
2022/08/20 08:27:08;;;;;;;2.63;1.00;;;18.80;99.90;;;;;;6229770;23;20165;-93
2022/08/20 08:29:42;;;;;;;1.63;0.90;;;18.90;99.90;;;;;;6225350;23;20176;-93
2022/08/20 08:32:15;;;;;;;1.67;1.10;;;18.90;99.90;;;;;;6223352;23;20552;-93
2022/08/20 08:34:46;;;;;;;1.27;1.10;;;18.80;99.90;;;;;;6223637;23;20200;-93
2022/08/20 08:37:18;;;;;;;2.30;1.20;;;18.70;99.90;;;;;;6225070;23;20246;-94
2022/08/20 08:39:49;;;;;;;1.50;1.27;;;18.70;99.90;;;;;;6224122;23;20184;-93
2022/08/20 08:42:27;;;;;;;0.93;0.93;;;18.70;99.90;;;;;;6231402;23;20164;-93
2022/08/20 08:45:03;;;;;;;3.07;1.20;;;18.70;99.90;;;;;;6243294;22;20195;-93
2022/08/20 08:47:40;;;;;;;1.83;1.10;;;18.70;99.90;;;;;;6212359;22;20231;-93
2022/08/20 08:50:21;;;;;;;1.70;1.07;;;18.70;99.90;;;;;;6213217;23;20188;-93
2022/08/20 08:53:18;;;;;;;1.57;1.13;;;18.70;99.90;;;;;;6210466;23;20259;-93
2022/08/20 08:55:50;;;;;;;1.73;1.00;;;18.60;99.90;;;;;;6200670;23;20634;-93
2022/08/20 08:58:21;;;;;;;1.40;0.90;;;18.60;99.90;;;;;;6203705;23;20189;-94
2022/08/20 09:00:55;;;;;;;1.13;0.80;;;18.60;99.90;;;;;;6191912;23;20223;-94
2022/08/20 09:03:38;;;;;;;1.47;0.90;;;18.60;99.90;;;;;;6191208;23;20181;-93
2022/08/20 09:06:13;;;;;;;1.10;0.90;;;18.50;99.90;;;;;;6195965;23;20176;-93
2022/08/20 09:08:48;;;;;;;4.63;1.10;;;18.50;99.90;;;;;;6192398;23;20172;-94
2022/08/20 09:11:23;;;;;;;1.07;0.90;;;18.60;99.90;;;;;;6190202;23;20632;-93
2022/08/20 09:13:54;;;;;;;1.17;1.00;;;18.60;99.90;;;;;;6193323;23;20204;-93
2022/08/20 09:16:28;;;;;;;1.10;0.70;;;18.70;99.90;;;;;;6191161;23;20185;-93
2022/08/20 09:19:21;;;;;;;1.17;0.80;;;18.70;99.90;;;;;;6192425;23;20220;-94
2022/08/20 09:21:53;;;;;;;1.03;0.83;;;18.80;99.90;;;;;;6190203;23;20201;-94
2022/08/20 09:24:25;;;;;;;1.97;0.80;;;18.70;99.90;;;;;;6193755;23;20177;-93
2022/08/20 09:26:56;;;;;;;1.93;1.20;;;18.80;99.90;;;;;;6191534;23;20184;-95
2022/08/20 09:29:28;;;;;;;2.67;0.70;;;18.70;99.90;;;;;;6193558;23;20176;-94
2022/08/20 09:32:11;;;;;;;1.00;0.80;;;18.70;99.90;;;;;;6189818;23;20192;-93
2022/08/20 09:34:45;;;;;;;1.60;1.10;;;18.70;99.90;;;;;;6191330;23;20216;-94
2022/08/20 09:37:17;;;;;;;1.13;0.80;;;18.70;99.90;;;;;;6191237;23;20181;-94
2022/08/20 09:39:49;;;;;;;1.20;1.10;;;18.50;99.90;;;;;;6191174;23;20197;-95
2022/08/20 09:42:22;;;;;;;1.57;1.30;;;18.50;99.90;;;;;;6190089;23;20177;-94
2022/08/20 09:44:54;;;;;;;1.20;1.00;;;18.50;99.90;;;;;;6190353;23;20239;-94
2022/08/20 09:47:29;;;;;;;1.20;1.10;;;18.50;99.90;;;;;;6193439;23;20184;-94
2022/08/20 09:50:01;;;;;;;1.20;1.00;;;18.50;99.90;;;;;;6190523;23;20196;-94
2022/08/20 09:52:38;;;;;;;2.53;1.10;;;18.50;99.90;;;;;;6189689;23;20199;-94
2022/08/20 09:55:19;;;;;;;1.10;0.97;;;18.50;99.90;;;;;;6190578;23;20284;-94
2022/08/20 09:57:51;;;;;;;2.47;0.80;;;18.60;99.90;;;;;;6189547;23;20188;-94
2022/08/20 10:00:23;;;;;;;0.87;0.87;;;18.50;99.90;;;;;;6190595;23;20183;-93
2022/08/20 10:02:56;;;;;;;1.30;1.20;;;18.40;99.90;;;;;;6189816;23;20177;-94
2022/08/20 10:05:27;;;;;;;0.73;0.73;;;18.40;99.90;;;;;;6190185;23;20257;-94
2022/08/20 10:07:59;;;;;;;0.97;0.90;;;18.40;99.90;;;;;;6190400;23;20177;-93
2022/08/20 10:10:31;;;;;;;1.13;0.97;;;18.40;99.90;;;;;;6190547;23;20228;-93
2022/08/20 10:13:02;;;;;;;1.00;0.90;;;18.40;99.90;;;;;;6189143;23;20177;-93
2022/08/20 10:15:34;;;;;;;0.90;0.90;;;18.40;99.90;;;;;;6189165;23;20201;-93
2022/08/20 10:18:09;;;;;;;0.93;0.90;;;18.50;99.90;;;;;;6190785;23;20673;-91
2022/08/20 10:20:42;;;;;;;1.67;0.90;;;18.40;99.90;;;;;;6190352;23;20195;-93
2022/08/20 10:23:13;;;;;;;1.40;1.17;;;18.50;99.90;;;;;;6190390;23;20200;-93
2022/08/20 10:25:45;;;;;;;1.47;1.00;;;18.40;99.90;;;;;;6190123;23;20185;-93
2022/08/20 10:28:17;;;;;;;2.10;1.27;;;18.30;99.90;;;;;;6190292;23;20260;-93
2022/08/20 10:30:49;;;;;;;1.10;1.00;;;18.40;99.90;;;;;;6190165;23;20188;-93
2022/08/20 10:33:24;;;;;;;0.80;0.80;;;18.30;99.90;;;;;;6192456;23;20551;-93
2022/08/20 10:35:56;;;;;;;1.63;1.13;;;18.20;99.90;;;;;;6189389;23;20181;-93
2022/08/20 10:38:29;;;;;;;1.23;1.13;;;18.30;99.90;;;;;;6192290;23;20215;-93
2022/08/20 10:41:00;;;;;;;2.80;1.00;;;18.30;99.90;;;;;;6192280;23;20551;-93
2022/08/20 10:43:32;;;;;;;1.00;1.00;;;18.30;99.90;;;;;;6191913;23;20178;-93
2022/08/20 10:46:04;;;;;;;2.40;1.30;;;18.30;99.90;;;;;;6192263;23;20181;-93
2022/08/20 10:48:37;;;;;;;1.37;1.10;;;18.30;99.90;;;;;;6192285;23;20177;-93
2022/08/20 10:51:08;;;;;;;1.17;1.07;;;18.30;99.90;;;;;;6192779;23;20285;-93
2022/08/20 10:53:40;;;;;;;1.13;1.10;;;18.30;99.90;;;;;;6191840;23;20256;-93
2022/08/20 10:56:12;;;;;;;1.10;1.00;;;18.30;99.90;;;;;;6190290;23;20180;-93
2022/08/20 10:58:45;;;;;;;1.00;1.00;;;18.30;99.90;;;;;;6193054;23;20177;-93
2022/08/20 11:01:16;;;;;;;1.10;1.00;;;18.40;99.90;;;;;;6195229;23;20450;-94
2022/08/20 11:04:03;;;;;;;2.63;1.20;;;18.40;99.90;;;;;;6191450;23;20250;-93
2022/08/20 11:06:35;;;;;;;1.10;1.00;;;18.40;99.90;;;;;;6192127;23;20180;-93
2022/08/20 11:09:06;;;;;;;1.07;0.97;;;18.30;99.90;;;;;;6194575;23;20177;-93
2022/08/20 11:11:38;;;;;;;1.53;1.23;;;18.30;99.90;;;;;;6191782;23;20177;-93
2022/08/20 11:14:10;;;;;;;1.10;1.00;;;18.40;99.90;;;;;;6192670;23;20177;-93
2022/08/20 11:16:41;;;;;;;1.13;0.97;;;18.40;99.90;;;;;;6192441;23;20175;-93
2022/08/20 11:19:15;;;;;;;1.60;1.10;;;18.40;99.90;;;;;;6189856;23;20639;-93
2022/08/20 11:21:47;;;;;;;1.30;1.10;;;18.30;99.90;;;;;;6191141;23;20226;-94
2022/08/20 11:24:19;;;;;;;1.80;1.10;;;18.40;99.90;;;;;;6194416;23;20185;-93
2022/08/20 11:26:52;;;;;;;1.30;1.20;;;18.20;99.90;;;;;;6191171;23;20248;-93
2022/08/20 11:29:23;;;;;;;1.17;1.07;;;18.20;99.90;;;;;;6193515;23;20165;-92
2022/08/20 11:31:55;;;;;;;2.10;0.90;;;18.10;99.90;;;;;;6192842;23;20209;-94
2022/08/20 11:34:28;;;;;;;1.00;0.90;;;18.20;99.90;;;;;;6188857;23;20267;-93
2022/08/20 11:37:00;;;;;;;1.00;1.00;;;18.20;99.90;;;;;;6189848;23;20177;-93
2022/08/20 11:39:31;;;;;;;1.43;1.00;;;18.20;99.90;;;;;;6193778;23;20168;-93
2022/08/20 11:42:03;;;;;;;1.13;0.90;;;18.10;99.90;;;;;;6188803;23;20180;-93
2022/08/20 11:44:35;;;;;;;1.17;1.10;;;18.10;99.90;;;;;;6189263;23;20705;-93
2022/08/20 11:47:07;;;;;;;0.90;0.90;;;18.20;99.90;;;;;;6189484;23;20247;-93
2022/08/20 11:49:41;;;;;;;1.53;0.90;;;18.20;99.90;;;;;;6188508;23;20290;-94
2022/08/20 11:52:12;;;;;;;1.07;0.90;;;18.20;99.90;;;;;;6187651;23;20517;-93
2022/08/20 11:54:44;;;;;;;1.57;0.87;;;18.10;99.90;;;;;;6191019;23;20658;-93
2022/08/20 11:57:20;;;;;;;0.80;0.80;;;18.20;99.90;;;;;;6191637;23;20184;-93
2022/08/20 11:59:52;;;;;;;0.90;0.80;;;18.20;99.90;;;;;;6192024;23;20231;-93
2022/08/20 12:02:23;;;;;;;1.73;0.90;;;18.10;99.90;;;;;;6190772;23;20231;-93
2022/08/20 12:05:02;;;;;;;1.30;0.80;;;18.10;99.90;;;;;;6192356;23;20172;-94
2022/08/20 12:07:33;;;;;;;1.43;0.90;;;18.00;99.90;;;;;;6193642;23;20180;-92
2022/08/20 12:10:05;;;;;;;1.17;1.07;;;18.00;99.90;;;;;;6192877;23;20184;-92
2022/08/20 12:12:37;;;;;;;1.37;1.10;;;18.10;99.90;;;;;;6189927;23;20176;-93
2022/08/20 12:15:11;;;;;;;0.73;0.70;;;18.10;99.90;;;;;;6192100;23;20228;-93
2022/08/20 12:17:42;;;;;;;1.23;1.00;;;18.10;99.90;;;;;;6191094;23;20177;-93
2022/08/20 12:20:16;;;;;;;1.07;0.97;;;18.00;99.90;;;;;;6191228;23;20228;-93
2022/08/20 12:22:47;;;;;;;0.87;0.80;;;17.90;99.90;;;;;;6190223;23;20627;-93
2022/08/20 12:25:19;;;;;;;0.83;0.83;;;17.90;99.90;;;;;;6191333;23;20260;-93
2022/08/20 12:27:50;;;;;;;0.73;0.73;;;17.90;99.90;;;;;;6191375;23;20232;-93
2022/08/20 12:30:24;;;;;;;0.80;0.70;;;17.90;99.90;;;;;;6190974;23;20627;-93
2022/08/20 12:32:55;;;;;;;0.70;0.70;;;17.90;99.90;;;;;;6190247;23;20181;-93
2022/08/20 12:35:30;;;;;;;0.67;0.67;;;17.90;99.90;;;;;;6191066;23;20643;-93
2022/08/20 12:38:05;;;;;;;1.43;0.50;;;17.90;99.90;;;;;;6191185;23;20246;-93
2022/08/20 12:40:36;;;;;;;0.80;0.53;;;17.90;99.90;;;;;;6190852;23;20180;-93
2022/08/20 12:43:08;;;;;;;0.50;0.50;;;18.00;99.90;;;;;;6189534;23;20177;-93
2022/08/20 12:45:39;;;;;;;0.60;0.60;;;18.00;99.90;;;;;;6190724;23;20173;-93
2022/08/20 12:48:12;;;;;;;0.60;0.50;;;18.00;99.90;;;;;;6189903;23;20227;-92
2022/08/20 12:50:46;;;;;;;0.67;0.67;;;18.00;99.90;;;;;;6190986;23;20208;-93
2022/08/20 12:53:17;;;;;;;0.60;0.40;;;18.00;99.90;;;;;;6189529;23;20177;-93
2022/08/20 12:55:49;;;;;;;0.87;0.50;;;18.00;99.90;;;;;;6191249;23;20205;-93
2022/08/20 12:58:20;;;;;;;0.77;0.50;;;18.10;99.90;;;;;;6190990;23;20177;-93
2022/08/20 13:00:51;;;;;;;0.40;0.40;;;18.20;99.90;;;;;;6192465;23;20228;-92
2022/08/20 13:03:23;;;;;;;1.17;0.60;;;18.10;99.90;;;;;;6190506;23;20173;-93
2022/08/20 13:05:57;;;;;;;0.53;0.40;;;18.20;99.90;;;;;;6191248;23;20511;-93
2022/08/20 13:08:29;;;;;;;0.40;0.40;;;18.10;99.90;;;;;;6191124;23;20177;-93
2022/08/20 13:11:00;;;;;;;0.60;0.60;;;18.00;99.90;;;;;;6191597;23;20604;-92
2022/08/20 13:13:32;;;;;;;1.13;0.60;;;18.00;99.90;;;;;;6190119;23;20170;-92
2022/08/20 13:16:04;;;;;;;0.70;0.40;;;17.90;99.90;;;;;;6190616;23;20216;-93
2022/08/20 13:18:35;;;;;;;1.33;0.50;;;18.00;99.90;;;;;;6190817;23;20189;-93
2022/08/20 13:21:09;;;;;;;0.47;0.47;;;18.00;99.90;;;;;;6192885;23;20162;-93
2022/08/20 13:23:41;;;;;;;0.43;0.43;;;18.00;99.90;;;;;;6191647;23;20168;-93
2022/08/20 13:26:12;;;;;;;0.50;0.50;;;17.90;99.90;;;;;;6191521;23;20177;-93
2022/08/20 13:28:43;;;;;;;0.40;0.40;;;17.90;99.90;;;;;;6194839;23;20177;-93
2022/08/20 13:31:15;;;;;;;0.93;0.40;;;17.90;99.90;;;;;;6191145;23;20223;-94
2022/08/20 13:34:01;;;;;;;0.70;0.50;;;17.90;99.90;;;;;;6196447;23;20177;-93
2022/08/20 13:36:35;;;;;;;1.23;0.70;;;17.90;99.90;;;;;;6189811;23;20236;-93
2022/08/20 13:39:08;;;;;;;0.50;0.50;;;17.80;99.90;;;;;;6191559;23;20173;-94
2022/08/20 13:41:40;;;;;;;0.43;0.43;;;17.80;99.90;;;;;;6193119;23;20177;-94
2022/08/20 13:44:11;;;;;;;0.43;0.43;;;17.80;99.90;;;;;;6190910;23;20197;-93
2022/08/20 13:46:43;;;;;;;0.77;0.47;;;17.90;99.90;;;;;;6190417;23;20200;-94
2022/08/20 13:49:14;;;;;;;0.50;0.50;;;17.90;99.90;;;;;;6190670;23;20272;-93
2022/08/20 13:51:47;;;;;;;1.13;0.53;;;17.90;99.90;;;;;;6190237;23;20203;-94
2022/08/20 13:54:21;;;;;;;0.60;0.50;;;17.90;99.90;;;;;;6189904;23;20177;-93
2022/08/20 13:57:06;;;;;;;0.40;0.40;;;17.90;99.90;;;;;;6192717;23;20710;-93
2022/08/20 13:59:39;;;;;;;0.40;0.40;;;18.10;99.90;;;;;;6191787;23;20248;-94
2022/08/20 14:02:12;;;;;;;0.90;0.50;;;18.10;99.90;;;;;;6191143;23;20228;-94
2022/08/20 14:04:44;;;;;;;0.67;0.40;;;18.20;99.90;;;;;;6196416;23;20187;-92
2022/08/20 14:07:21;;;;;;;0.40;0.40;;;18.20;99.90;;;;;;6198240;23;20196;-93
2022/08/20 14:09:57;;;;;;;1.67;0.37;;;18.30;99.90;;;;;;6212152;23;20172;-94
2022/08/20 14:12:29;;;;;;;0.40;0.30;;;18.20;99.90;;;;;;6211397;23;20171;-92
2022/08/20 14:15:01;;;;;;;0.40;0.40;;;18.20;99.90;;;;;;6211731;23;20229;-93
2022/08/20 14:17:34;;;;;;;0.93;0.40;;;18.20;99.90;;;;;;6209678;23;20259;-93
2022/08/20 14:20:09;;;;;;;0.40;0.40;;;18.20;99.90;;;;;;6197514;23;20177;-92
2022/08/20 14:22:42;;;;;;;0.40;0.40;;;18.30;99.90;;;;;;6190774;23;20172;-92
2022/08/20 14:25:15;;;;;;;0.83;0.40;;;18.20;99.90;;;;;;6190479;23;20483;-92
2022/08/20 14:27:46;;;;;;;0.50;0.40;;;18.30;99.90;;;;;;6189180;23;20188;-93
2022/08/20 14:30:20;;;;;;;2.27;0.57;;;18.40;99.90;;;;;;6190713;23;20235;-93
2022/08/20 14:32:51;;;;;;;0.50;0.50;;;18.50;99.90;;;;;;6189159;23;20608;-93
2022/08/20 14:35:23;;;;;;;0.87;0.40;;;18.60;99.90;;;;;;6190424;23;20189;-92
2022/08/20 14:37:58;;;;;;;0.50;0.30;;;18.60;99.90;;;;;;6190422;23;20200;-93
2022/08/20 14:40:33;;;;;;;0.60;0.40;;;18.70;99.90;;;;;;6192804;23;20172;-93
2022/08/20 14:43:04;;;;;;;0.70;0.43;;;18.70;99.90;;;;;;6189555;23;20189;-93
2022/08/20 14:45:36;;;;;;;0.50;0.50;;;18.70;99.90;;;;;;6198021;23;20172;-92
2022/08/20 14:48:09;;;;;;;0.60;0.60;;;18.80;99.90;;;;;;6195062;23;20537;-93
2022/08/20 14:50:42;;;;;;;0.70;0.50;;;18.80;99.90;;;;;;6199305;23;20193;-93
2022/08/20 14:53:19;;;;;;;0.83;0.73;;;18.80;99.90;;;;;;6190913;23;20185;-92
2022/08/20 14:55:53;;;;;;;1.87;0.60;;;18.90;99.90;;;;;;6190566;23;20173;-93
2022/08/20 14:58:24;;;;;;;1.17;0.60;;;18.90;99.90;;;;;;6189182;23;20197;-93
2022/08/20 15:00:55;;;;;;;0.87;0.50;;;19.00;99.90;;;;;;6189574;23;20177;-93
2022/08/20 15:03:29;;;;;;;0.50;0.50;;;19.00;99.90;;;;;;6188657;23;20173;-93